createdAt,value
2023-03-26T00:12:27.510Z,98890.81
2023-03-26T00:27:30.628Z,98879.71
2023-03-26T00:42:34.413Z,98876.39
2023-03-26T00:57:37.541Z,98860.48
2023-03-26T01:12:40.734Z,98848.82
2023-03-26T01:27:55.884Z,98840.80
2023-03-26T01:43:04.702Z,98830.51
2023-03-26T01:58:07.692Z,98818.58
2023-03-26T02:13:12.666Z,98814.70
2023-03-26T02:28:17.309Z,98804.98
2023-03-26T02:43:20.798Z,98782.87
2023-03-26T02:58:26.489Z,98777.34
2023-03-26T03:13:30.395Z,98774.55
2023-03-26T03:28:33.672Z,98767.06
2023-03-26T03:43:37.627Z,98774.16
2023-03-26T03:58:54.032Z,98766.45
2023-03-26T04:14:05.164Z,98763.86
2023-03-26T04:29:43.040Z,98755.39
2023-03-26T04:44:51.042Z,98742.48
2023-03-26T04:59:54.950Z,98735.19
2023-03-26T05:14:58.190Z,98731.18
2023-03-26T05:30:27.702Z,98731.38
2023-03-26T05:45:34.697Z,98728.21
2023-03-26T06:00:48.905Z,98726.40
2023-03-26T06:15:54.613Z,98726.33
2023-03-26T06:31:07.340Z,98732.34
2023-03-26T06:46:19.045Z,98725.96
2023-03-26T07:01:31.859Z,98720.83
2023-03-26T07:16:54.446Z,98719.83
2023-03-26T07:32:19.158Z,98724.95
2023-03-26T07:47:35.308Z,98716.89
2023-03-26T08:03:23.145Z,98715.81
2023-03-26T08:19:19.652Z,98716.75
2023-03-26T08:34:22.804Z,98719.67
2023-03-26T08:50:23.646Z,98720.36
2023-03-26T09:05:55.046Z,98720.06
2023-03-26T09:21:30.557Z,98725.21
2023-03-26T09:36:44.558Z,98736.70
2023-03-26T09:52:07.304Z,98735.79
2023-03-26T10:07:30.449Z,98740.84
2023-03-26T10:22:47.151Z,98745.36
2023-03-26T10:38:14.333Z,98734.30
2023-03-26T10:53:44.168Z,98724.48
2023-03-26T11:08:55.917Z,98749.19
2023-03-26T11:24:34.807Z,98770.31
2023-03-26T11:39:59.452Z,98783.77
2023-03-26T11:55:03.471Z,98784.88
2023-03-26T12:10:20.620Z,98773.45
2023-03-26T12:25:27.312Z,98778.95
2023-03-26T12:40:36.792Z,98769.01
2023-03-26T12:55:51.572Z,98761.88
2023-03-26T13:10:58.673Z,98752.73
2023-03-26T13:26:30.970Z,98753.17
2023-03-26T13:41:52.288Z,98761.45
2023-03-26T13:57:05.915Z,98757.73
2023-03-26T14:12:40.198Z,98749.67
2023-03-26T14:28:02.221Z,98750.09
2023-03-26T14:43:44.445Z,98761.56
2023-03-26T14:58:50.464Z,98780.73
2023-03-26T15:14:31.558Z,98783.52
2023-03-26T15:32:57.323Z,98793.44
2023-03-26T15:48:12.924Z,98804.57
2023-03-26T16:03:31.030Z,98805.99
2023-03-26T16:18:42.548Z,98796.91
2023-03-26T16:33:56.746Z,98806.81
2023-03-26T16:49:12.507Z,98823.36
2023-03-26T17:04:23.792Z,98831.64
2023-03-26T17:19:59.450Z,98836.91
2023-03-26T17:35:04.999Z,98855.59
2023-03-26T17:50:21.749Z,98868.39
2023-03-26T18:05:30.004Z,98876.20
2023-03-26T18:20:38.328Z,98888.66
2023-03-26T18:35:46.673Z,98895.02
2023-03-26T18:50:56.956Z,98894.39
2023-03-26T19:06:02.627Z,98889.75
2023-03-26T19:21:08.371Z,98877.15
2023-03-26T19:36:14.936Z,98869.27
2023-03-26T19:51:38.906Z,98864.41
2023-03-26T20:06:44.157Z,98864.26
2023-03-26T20:21:48.162Z,98867.79
2023-03-26T20:36:55.553Z,98872.23
2023-03-26T20:52:00.079Z,98875.92
2023-03-26T21:07:14.980Z,98871.75
2023-03-26T21:22:39.742Z,98891.13
2023-03-26T21:37:45.692Z,98896.03
2023-03-26T21:52:49.941Z,98905.44
2023-03-26T22:07:57.183Z,98910.65
2023-03-26T22:23:01.134Z,98907.39
2023-03-26T22:38:05.247Z,98911.48
2023-03-26T22:53:08.570Z,98914.84
2023-03-26T23:08:12.525Z,98917.13
2023-03-26T23:23:16.206Z,98905.88
2023-03-26T23:38:22.310Z,98898.05
2023-03-26T23:53:25.363Z,98893.87
